sensor_id;sensor_type;location;lat;lon;timestamp;pressure;altitude;pressure_sealevel;temperature;humidity
77003;BME280;65939;50.060;14.288;2023-02-23T00:00:22;96980.28;;;6.64;79.78
77003;BME280;65939;50.060;14.288;2023-02-23T00:02:27;96980.28;;;6.64;80.20
77003;BME280;65939;50.060;14.288;2023-02-23T00:04:28;96977.00;;;6.62;80.42
77003;BME280;65939;50.060;14.288;2023-02-23T00:06:32;96977.00;;;6.62;79.90
77003;BME280;65939;50.060;14.288;2023-02-23T00:08:34;96977.00;;;6.62;80.73
77003;BME280;65939;50.060;14.288;2023-02-23T00:10:35;96978.78;;;6.62;80.15
77003;BME280;65939;50.060;14.288;2023-02-23T00:12:36;96980.69;;;6.60;80.07
77003;BME280;65939;50.060;14.288;2023-02-23T00:14:37;96970.31;;;6.60;79.98
77003;BME280;65939;50.060;14.288;2023-02-23T00:16:38;96968.53;;;6.60;80.29
77003;BME280;65939;50.060;14.288;2023-02-23T00:18:50;96965.94;;;6.60;80.89
77003;BME280;65939;50.060;14.288;2023-02-23T00:20:56;96964.16;;;6.61;81.34
77003;BME280;65939;50.060;14.288;2023-02-23T00:22:56;96965.94;;;6.60;80.99
77003;BME280;65939;50.060;14.288;2023-02-23T00:24:57;96957.19;;;6.61;80.87
77003;BME280;65939;50.060;14.288;2023-02-23T00:26:59;96970.16;;;6.61;80.89
77003;BME280;65939;50.060;14.288;2023-02-23T00:29:08;96961.44;;;6.62;81.60
77003;BME280;65939;50.060;14.288;2023-02-23T00:31:10;96964.84;;;6.63;80.63
77003;BME280;65939;50.060;14.288;2023-02-23T00:33:11;96962.28;;;6.63;81.10
77003;BME280;65939;50.060;14.288;2023-02-23T00:35:11;96965.69;;;6.63;80.89
77003;BME280;65939;50.060;14.288;2023-02-23T00:37:17;96956.00;;;6.65;81.31
77003;BME280;65939;50.060;14.288;2023-02-23T00:39:18;96962.13;;;6.64;81.50
77003;BME280;65939;50.060;14.288;2023-02-23T00:41:23;96961.19;;;6.65;81.05
77003;BME280;65939;50.060;14.288;2023-02-23T00:43:32;96960.34;;;6.65;81.21
77003;BME280;65939;50.060;14.288;2023-02-23T00:45:33;96962.94;;;6.65;81.27
77003;BME280;65939;50.060;14.288;2023-02-23T00:47:34;96958.59;;;6.65;80.82
77003;BME280;65939;50.060;14.288;2023-02-23T00:49:35;96956.94;;;6.64;81.48
77003;BME280;65939;50.060;14.288;2023-02-23T00:51:36;96962.94;;;6.65;80.87
77003;BME280;65939;50.060;14.288;2023-02-23T00:53:37;96960.34;;;6.65;80.64
77003;BME280;65939;50.060;14.288;2023-02-23T00:55:40;96962.94;;;6.65;81.48
77003;BME280;65939;50.060;14.288;2023-02-23T00:57:40;96967.31;;;6.64;80.97
77003;BME280;65939;50.060;14.288;2023-02-23T00:59:41;96964.72;;;6.64;80.81
77003;BME280;65939;50.060;14.288;2023-02-23T01:01:43;96965.69;;;6.63;80.81
77003;BME280;65939;50.060;14.288;2023-02-23T01:03:45;96964.84;;;6.63;81.03
77003;BME280;65939;50.060;14.288;2023-02-23T01:05:45;96964.03;;;6.62;80.48
77003;BME280;65939;50.060;14.288;2023-02-23T01:07:49;96970.06;;;6.63;80.89
77003;BME280;65939;50.060;14.288;2023-02-23T01:09:50;96960.50;;;6.63;81.19
77003;BME280;65939;50.060;14.288;2023-02-23T01:11:51;96964.16;;;6.61;81.26
77003;BME280;65939;50.060;14.288;2023-02-23T01:13:54;96964.03;;;6.62;81.04
77003;BME280;65939;50.060;14.288;2023-02-23T01:15:55;96964.16;;;6.61;81.41
77003;BME280;65939;50.060;14.288;2023-02-23T01:17:55;96965.94;;;6.60;81.28
77003;BME280;65939;50.060;14.288;2023-02-23T01:19:56;96957.34;;;6.60;81.21
77003;BME280;65939;50.060;14.288;2023-02-23T01:21:57;96955.72;;;6.59;81.37
77003;BME280;65939;50.060;14.288;2023-02-23T01:23:58;96954.06;;;6.58;81.92
77003;BME280;65939;50.060;14.288;2023-02-23T01:25:59;96954.22;;;6.56;80.96
77003;BME280;65939;50.060;14.288;2023-02-23T01:28:01;96954.22;;;6.56;81.45
77003;BME280;65939;50.060;14.288;2023-02-23T01:30:01;96955.19;;;6.55;81.65
77003;BME280;65939;50.060;14.288;2023-02-23T01:32:02;96954.50;;;6.53;81.15
77003;BME280;65939;50.060;14.288;2023-02-23T01:34:04;96947.69;;;6.52;81.16
77003;BME280;65939;50.060;14.288;2023-02-23T01:36:05;96949.56;;;6.50;81.52
77003;BME280;65939;50.060;14.288;2023-02-23T01:38:06;96947.94;;;6.49;81.62
77003;BME280;65939;50.060;14.288;2023-02-23T01:40:17;96946.31;;;6.48;81.42
77003;BME280;65939;50.060;14.288;2023-02-23T01:42:30;96947.41;;;6.45;82.09
77003;BME280;65939;50.060;14.288;2023-02-23T01:46:34;96944.97;;;6.44;81.22
77003;BME280;65939;50.060;14.288;2023-02-23T01:48:38;96938.13;;;6.43;82.03
77003;BME280;65939;50.060;14.288;2023-02-23T01:51:02;96934.88;;;6.41;82.04
77003;BME280;65939;50.060;14.288;2023-02-23T01:53:04;96934.06;;;6.40;81.45
77003;BME280;65939;50.060;14.288;2023-02-23T01:55:05;96940.31;;;6.38;81.89
77003;BME280;65939;50.060;14.288;2023-02-23T01:57:12;96931.03;;;6.35;81.91
77003;BME280;65939;50.060;14.288;2023-02-23T01:59:15;96931.19;;;6.34;81.51
77003;BME280;65939;50.060;14.288;2023-02-23T02:01:17;96929.53;;;6.33;81.89
77003;BME280;65939;50.060;14.288;2023-02-23T02:03:25;96932.13;;;6.33;81.25
77003;BME280;65939;50.060;14.288;2023-02-23T02:05:28;96922.72;;;6.32;81.21
77003;BME280;65939;50.060;14.288;2023-02-23T02:07:30;96927.25;;;6.30;81.19
77003;BME280;65939;50.060;14.288;2023-02-23T02:09:34;96927.25;;;6.30;81.28
77003;BME280;65939;50.060;14.288;2023-02-23T02:11:37;96923.97;;;6.28;82.04
77003;BME280;65939;50.060;14.288;2023-02-23T02:13:38;96921.38;;;6.28;82.08
77003;BME280;65939;50.060;14.288;2023-02-23T02:16:08;96921.38;;;6.28;81.36
77003;BME280;65939;50.060;14.288;2023-02-23T02:18:21;96922.31;;;6.27;81.38
77003;BME280;65939;50.060;14.288;2023-02-23T02:26:08;96919.31;;;6.21;82.29
77003;BME280;65939;50.060;14.288;2023-02-23T02:40:30;96923.00;;;6.09;81.56
77003;BME280;65939;50.060;14.288;2023-02-23T02:42:47;96924.78;;;6.09;80.73
77003;BME280;65939;50.060;14.288;2023-02-23T02:47:05;96936.25;;;6.06;80.39
77003;BME280;65939;50.060;14.288;2023-02-23T02:49:44;96927.09;;;6.02;79.74
77003;BME280;65939;50.060;14.288;2023-02-23T02:52:07;96929.00;;;6.00;80.17
77003;BME280;65939;50.060;14.288;2023-02-23T02:54:48;96937.03;;;5.97;80.74
77003;BME280;65939;50.060;14.288;2023-02-23T02:56:54;96932.13;;;5.94;79.96
77003;BME280;65939;50.060;14.288;2023-02-23T02:58:56;96932.28;;;5.92;80.44
77003;BME280;65939;50.060;14.288;2023-02-23T03:01:11;96938.50;;;5.90;80.31
77003;BME280;65939;50.060;14.288;2023-02-23T03:03:35;96931.00;;;5.87;80.73
77003;BME280;65939;50.060;14.288;2023-02-23T03:05:54;96937.28;;;5.84;79.91
77003;BME280;65939;50.060;14.288;2023-02-23T03:08:20;96932.38;;;5.81;80.92
77003;BME280;65939;50.060;14.288;2023-02-23T03:10:54;96935.22;;;5.78;80.25
77003;BME280;65939;50.060;14.288;2023-02-23T03:15:59;96934.94;;;5.71;81.04
77003;BME280;65939;50.060;14.288;2023-02-23T03:21:15;96930.16;;;5.67;81.44
77003;BME280;65939;50.060;14.288;2023-02-23T03:28:40;96932.22;;;5.63;81.33
77003;BME280;65939;50.060;14.288;2023-02-23T03:33:43;96928.91;;;5.61;81.08
77003;BME280;65939;50.060;14.288;2023-02-23T03:36:15;96926.47;;;5.60;81.90
77003;BME280;65939;50.060;14.288;2023-02-23T03:39:00;96927.69;;;5.56;81.88
77003;BME280;65939;50.060;14.288;2023-02-23T03:41:27;96933.97;;;5.53;82.13
77003;BME280;65939;50.060;14.288;2023-02-23T03:43:57;96929.75;;;5.52;82.20
77003;BME280;65939;50.060;14.288;2023-02-23T03:46:20;96934.91;;;5.52;82.85
77003;BME280;65939;50.060;14.288;2023-02-23T03:48:44;96941.88;;;5.51;82.18
77003;BME280;65939;50.060;14.288;2023-02-23T03:51:10;96937.63;;;5.50;82.52
77003;BME280;65939;50.060;14.288;2023-02-23T03:54:06;96941.03;;;5.51;82.56
77003;BME280;65939;50.060;14.288;2023-02-23T03:56:32;96947.31;;;5.48;82.13
77003;BME280;65939;50.060;14.288;2023-02-23T03:58:58;96948.25;;;5.47;82.09
77003;BME280;65939;50.060;14.288;2023-02-23T04:01:20;96945.78;;;5.46;82.37
77003;BME280;65939;50.060;14.288;2023-02-23T04:03:44;96948.38;;;5.46;82.54
77003;BME280;65939;50.060;14.288;2023-02-23T04:06:10;96949.47;;;5.43;81.64
77003;BME280;65939;50.060;14.288;2023-02-23T04:08:35;96950.41;;;5.42;82.41
77003;BME280;65939;50.060;14.288;2023-02-23T04:11:17;96948.78;;;5.41;82.30
77003;BME280;65939;50.060;14.288;2023-02-23T04:13:39;96946.31;;;5.40;81.92
77003;BME280;65939;50.060;14.288;2023-02-23T04:17:59;96953.53;;;5.36;82.82
77003;BME280;65939;50.060;14.288;2023-02-23T04:19:59;96947.53;;;5.36;82.76
77003;BME280;65939;50.060;14.288;2023-02-23T04:22:00;96951.09;;;5.35;82.94
77003;BME280;65939;50.060;14.288;2023-02-23T04:24:01;96948.59;;;5.33;83.29
77003;BME280;65939;50.060;14.288;2023-02-23T04:26:01;96945.34;;;5.31;83.63
77003;BME280;65939;50.060;14.288;2023-02-23T04:28:02;96950.53;;;5.31;83.78
77003;BME280;65939;50.060;14.288;2023-02-23T04:30:04;96940.97;;;5.32;84.32
77003;BME280;65939;50.060;14.288;2023-02-23T04:32:06;96946.31;;;5.30;84.82
77003;BME280;65939;50.060;14.288;2023-02-23T04:34:07;96948.03;;;5.29;84.66
77003;BME280;65939;50.060;14.288;2023-02-23T04:36:07;96949.00;;;5.28;85.11
77003;BME280;65939;50.060;14.288;2023-02-23T04:38:08;96953.22;;;5.29;85.57
77003;BME280;65939;50.060;14.288;2023-02-23T04:40:09;96949.81;;;5.29;85.34
77003;BME280;65939;50.060;14.288;2023-02-23T04:42:10;96954.06;;;5.30;84.87
77003;BME280;65939;50.060;14.288;2023-02-23T04:44:11;96956.50;;;5.32;85.53
77003;BME280;65939;50.060;14.288;2023-02-23T04:46:11;96952.84;;;5.34;85.67
77003;BME280;65939;50.060;14.288;2023-02-23T04:48:12;96950.00;;;5.37;86.22
77003;BME280;65939;50.060;14.288;2023-02-23T04:50:12;96954.34;;;5.37;85.17
77003;BME280;65939;50.060;14.288;2023-02-23T04:52:13;96952.44;;;5.39;85.81
77003;BME280;65939;50.060;14.288;2023-02-23T04:54:14;96947.97;;;5.41;85.71
77003;BME280;65939;50.060;14.288;2023-02-23T04:56:14;96952.19;;;5.42;86.00
77003;BME280;65939;50.060;14.288;2023-02-23T04:58:15;96953.72;;;5.44;85.64
77003;BME280;65939;50.060;14.288;2023-02-23T05:00:17;96948.38;;;5.46;85.78
77003;BME280;65939;50.060;14.288;2023-02-23T05:02:18;96954.53;;;5.45;85.62
77003;BME280;65939;50.060;14.288;2023-02-23T05:04:18;96951.13;;;5.44;85.08
77003;BME280;65939;50.060;14.288;2023-02-23T05:06:19;96945.94;;;5.44;85.09
77003;BME280;65939;50.060;14.288;2023-02-23T05:08:20;96948.66;;;5.43;85.10
77003;BME280;65939;50.060;14.288;2023-02-23T05:10:20;96951.38;;;5.41;85.13
77003;BME280;65939;50.060;14.288;2023-02-23T05:12:21;96947.97;;;5.41;84.61
77003;BME280;65939;50.060;14.288;2023-02-23T05:14:22;96949.72;;;5.40;84.83
77003;BME280;65939;50.060;14.288;2023-02-23T05:16:22;96954.09;;;5.40;84.92
77003;BME280;65939;50.060;14.288;2023-02-23T05:18:24;96955.84;;;5.39;84.78
77003;BME280;65939;50.060;14.288;2023-02-23T05:20:25;96948.09;;;5.39;85.22
77003;BME280;65939;50.060;14.288;2023-02-23T05:22:26;96958.44;;;5.39;84.73
77003;BME280;65939;50.060;14.288;2023-02-23T05:24:26;96954.09;;;5.40;84.45
77003;BME280;65939;50.060;14.288;2023-02-23T05:26:27;96947.28;;;5.39;84.90
77003;BME280;65939;50.060;14.288;2023-02-23T05:28:27;96948.09;;;5.39;84.60
77003;BME280;65939;50.060;14.288;2023-02-23T05:30:28;96950.00;;;5.37;84.58
77003;BME280;65939;50.060;14.288;2023-02-23T05:32:29;96951.75;;;5.37;84.65
77003;BME280;65939;50.060;14.288;2023-02-23T05:34:29;96956.00;;;5.38;84.60
77003;BME280;65939;50.060;14.288;2023-02-23T05:36:30;96962.09;;;5.37;85.10
77003;BME280;65939;50.060;14.288;2023-02-23T05:38:30;96960.47;;;5.36;85.00
77003;BME280;65939;50.060;14.288;2023-02-23T05:40:31;96959.50;;;5.37;85.30
77003;BME280;65939;50.060;14.288;2023-02-23T05:42:31;96955.19;;;5.37;84.88
77003;BME280;65939;50.060;14.288;2023-02-23T05:44:32;96954.63;;;5.34;84.54
77003;BME280;65939;50.060;14.288;2023-02-23T05:46:33;96966.59;;;5.35;85.53
77003;BME280;65939;50.060;14.288;2023-02-23T05:48:33;96956.38;;;5.33;84.85
77003;BME280;65939;50.060;14.288;2023-02-23T05:50:35;96965.78;;;5.34;84.91
77003;BME280;65939;50.060;14.288;2023-02-23T05:52:37;96959.81;;;5.34;84.95
77003;BME280;65939;50.060;14.288;2023-02-23T05:54:38;96963.22;;;5.34;85.46
77003;BME280;65939;50.060;14.288;2023-02-23T05:56:41;96964.13;;;5.33;85.35
77003;BME280;65939;50.060;14.288;2023-02-23T05:58:42;96958.16;;;5.33;85.17
77003;BME280;65939;50.060;14.288;2023-02-23T06:00:42;96956.50;;;5.32;85.32
77003;BME280;65939;50.060;14.288;2023-02-23T06:02:43;96951.34;;;5.32;85.59
77003;BME280;65939;50.060;14.288;2023-02-23T06:04:45;96954.75;;;5.32;85.49
77003;BME280;65939;50.060;14.288;2023-02-23T06:06:46;96952.97;;;5.33;85.45
77003;BME280;65939;50.060;14.288;2023-02-23T06:08:46;96955.69;;;5.31;85.60
77003;BME280;65939;50.060;14.288;2023-02-23T06:10:47;96956.50;;;5.32;85.35
77003;BME280;65939;50.060;14.288;2023-02-23T06:12:48;96959.91;;;5.32;85.40
77003;BME280;65939;50.060;14.288;2023-02-23T06:14:49;96958.16;;;5.33;86.12
77003;BME280;65939;50.060;14.288;2023-02-23T06:16:50;96963.06;;;5.36;86.27
77003;BME280;65939;50.060;14.288;2023-02-23T06:18:50;96958.69;;;5.36;86.33
77003;BME280;65939;50.060;14.288;2023-02-23T06:20:51;96965.41;;;5.39;86.35
77003;BME280;65939;50.060;14.288;2023-02-23T06:22:52;96968.69;;;5.41;85.97
77003;BME280;65939;50.060;14.288;2023-02-23T06:24:52;96965.94;;;5.42;85.58
77003;BME280;65939;50.060;14.288;2023-02-23T06:26:53;96968.41;;;5.44;85.34
77003;BME280;65939;50.060;14.288;2023-02-23T06:28:54;96962.53;;;5.42;85.32
77003;BME280;65939;50.060;14.288;2023-02-23T06:30:55;96959.00;;;5.43;85.87
77003;BME280;65939;50.060;14.288;2023-02-23T06:32:55;96969.09;;;5.46;86.08
77003;BME280;65939;50.060;14.288;2023-02-23T06:34:56;96971.53;;;5.47;85.99
77003;BME280;65939;50.060;14.288;2023-02-23T06:36:56;96973.19;;;5.48;85.97
77003;BME280;65939;50.060;14.288;2023-02-23T06:38:58;96983.28;;;5.51;85.50
77003;BME280;65939;50.060;14.288;2023-02-23T06:40:59;96982.19;;;5.54;85.78
77003;BME280;65939;50.060;14.288;2023-02-23T06:42:59;96979.34;;;5.57;85.62
77003;BME280;65939;50.060;14.288;2023-02-23T06:45:03;96979.91;;;5.61;85.26
77003;BME280;65939;50.060;14.288;2023-02-23T06:47:04;96984.66;;;5.65;85.26
77003;BME280;65939;50.060;14.288;2023-02-23T06:49:05;96987.69;;;5.70;85.18
77003;BME280;65939;50.060;14.288;2023-02-23T06:51:06;96983.75;;;5.76;84.96
77003;BME280;65939;50.060;14.288;2023-02-23T06:53:07;96989.38;;;5.81;85.09
77003;BME280;65939;50.060;14.288;2023-02-23T06:55:08;96988.94;;;5.86;85.00
77003;BME280;65939;50.060;14.288;2023-02-23T06:57:09;96993.59;;;5.92;85.53
77003;BME280;65939;50.060;14.288;2023-02-23T06:59:10;96998.28;;;5.98;85.50
77003;BME280;65939;50.060;14.288;2023-02-23T07:01:11;96989.97;;;6.04;84.70
77003;BME280;65939;50.060;14.288;2023-02-23T07:03:12;96987.66;;;6.11;84.93
77003;BME280;65939;50.060;14.288;2023-02-23T07:05:12;96994.09;;;6.16;84.96
77003;BME280;65939;50.060;14.288;2023-02-23T07:07:13;96997.88;;;6.22;85.05
77003;BME280;65939;50.060;14.288;2023-02-23T07:09:14;96991.34;;;6.28;84.94
77003;BME280;65939;50.060;14.288;2023-02-23T07:11:15;97001.19;;;6.34;85.43
77003;BME280;65939;50.060;14.288;2023-02-23T07:13:17;96996.13;;;6.42;84.50
77003;BME280;65939;50.060;14.288;2023-02-23T07:15:19;96996.41;;;6.48;85.07
77003;BME280;65939;50.060;14.288;2023-02-23T07:17:20;96984.38;;;6.57;84.61
77003;BME280;65939;50.060;14.288;2023-02-23T07:19:20;96986.44;;;6.63;84.74
77003;BME280;65939;50.060;14.288;2023-02-23T07:21:22;96985.59;;;6.72;84.57
77003;BME280;65939;50.060;14.288;2023-02-23T07:23:23;96983.94;;;6.81;84.77
77003;BME280;65939;50.060;14.288;2023-02-23T07:25:24;96979.66;;;6.90;84.49
77003;BME280;65939;50.060;14.288;2023-02-23T07:27:25;96983.34;;;6.97;83.85
77003;BME280;65939;50.060;14.288;2023-02-23T07:29:26;96982.78;;;7.03;83.46
77003;BME280;65939;50.060;14.288;2023-02-23T07:31:27;96984.03;;;7.09;83.85
77003;BME280;65939;50.060;14.288;2023-02-23T07:33:28;96986.19;;;7.13;83.50
77003;BME280;65939;50.060;14.288;2023-02-23T07:35:28;96981.25;;;7.20;83.19
77003;BME280;65939;50.060;14.288;2023-02-23T07:37:29;96978.91;;;7.27;82.91
77003;BME280;65939;50.060;14.288;2023-02-23T07:39:30;96984.34;;;7.33;82.75
77003;BME280;65939;50.060;14.288;2023-02-23T07:41:31;96988.13;;;7.39;81.81
77003;BME280;65939;50.060;14.288;2023-02-23T07:43:32;96985.94;;;7.44;82.02
77003;BME280;65939;50.060;14.288;2023-02-23T07:45:32;96986.19;;;7.51;82.04
77003;BME280;65939;50.060;14.288;2023-02-23T07:47:33;96994.34;;;7.56;81.94
77003;BME280;65939;50.060;14.288;2023-02-23T07:49:34;96987.09;;;7.59;80.78
77003;BME280;65939;50.060;14.288;2023-02-23T07:51:34;96985.03;;;7.63;81.30
77003;BME280;65939;50.060;14.288;2023-02-23T07:53:35;96985.56;;;7.66;81.93
77003;BME280;65939;50.060;14.288;2023-02-23T07:55:36;96986.06;;;7.70;81.00
77003;BME280;65939;50.060;14.288;2023-02-23T07:57:40;96989.03;;;7.75;81.17
77003;BME280;65939;50.060;14.288;2023-02-23T07:59:40;96985.34;;;7.78;81.06
77003;BME280;65939;50.060;14.288;2023-02-23T08:01:41;96996.13;;;7.83;81.09
77003;BME280;65939;50.060;14.288;2023-02-23T08:03:41;96988.72;;;7.88;80.85
77003;BME280;65939;50.060;14.288;2023-02-23T08:05:48;96988.94;;;7.95;80.64
77003;BME280;65939;50.060;14.288;2023-02-23T08:07:49;96991.09;;;7.99;80.58
77003;BME280;65939;50.060;14.288;2023-02-23T08:09:51;96992.31;;;8.05;80.80
77003;BME280;65939;50.060;14.288;2023-02-23T08:11:52;96993.47;;;8.10;80.61
77003;BME280;65939;50.060;14.288;2023-02-23T08:13:54;96996.47;;;8.15;80.43
77003;BME280;65939;50.060;14.288;2023-02-23T08:15:59;96994.91;;;8.23;79.50
77003;BME280;65939;50.060;14.288;2023-02-23T08:17:59;96996.91;;;8.29;79.73
77003;BME280;65939;50.060;14.288;2023-02-23T08:20:00;96991.28;;;8.33;79.38
77003;BME280;65939;50.060;14.288;2023-02-23T08:22:01;96992.47;;;8.39;79.71
77003;BME280;65939;50.060;14.288;2023-02-23T08:24:01;96981.78;;;8.42;79.16
77003;BME280;65939;50.060;14.288;2023-02-23T08:26:02;96985.41;;;8.49;78.90
77003;BME280;65939;50.060;14.288;2023-02-23T08:28:03;96986.09;;;8.51;78.67
77003;BME280;65939;50.060;14.288;2023-02-23T08:30:06;96988.41;;;8.54;79.46
77003;BME280;65939;50.060;14.288;2023-02-23T08:32:09;96983.72;;;8.58;78.44
77003;BME280;65939;50.060;14.288;2023-02-23T08:34:10;96989.44;;;8.61;79.08
77003;BME280;65939;50.060;14.288;2023-02-23T08:36:10;96985.41;;;8.67;78.80
77003;BME280;65939;50.060;14.288;2023-02-23T08:38:11;96987.09;;;8.76;78.24
77003;BME280;65939;50.060;14.288;2023-02-23T08:40:12;96981.94;;;8.84;78.66
77003;BME280;65939;50.060;14.288;2023-02-23T08:42:15;96989.00;;;8.92;77.72
77003;BME280;65939;50.060;14.288;2023-02-23T08:44:17;96986.47;;;9.00;77.93
77003;BME280;65939;50.060;14.288;2023-02-23T08:46:18;96986.66;;;9.07;77.22
77003;BME280;65939;50.060;14.288;2023-02-23T08:48:20;96988.50;;;9.15;77.65
77003;BME280;65939;50.060;14.288;2023-02-23T08:50:22;96986.91;;;9.22;76.77
77003;BME280;65939;50.060;14.288;2023-02-23T08:52:22;96984.47;;;9.28;77.10
77003;BME280;65939;50.060;14.288;2023-02-23T08:54:24;96980.78;;;9.39;77.01
77003;BME280;65939;50.060;14.288;2023-02-23T08:56:26;96992.75;;;9.50;76.69
77003;BME280;65939;50.060;14.288;2023-02-23T08:58:28;96985.78;;;9.58;76.25
77003;BME280;65939;50.060;14.288;2023-02-23T09:00:32;96992.50;;;9.69;75.78
77003;BME280;65939;50.060;14.288;2023-02-23T09:02:33;97000.84;;;9.81;75.70
77003;BME280;65939;50.060;14.288;2023-02-23T09:04:34;96994.88;;;9.97;75.47
77003;BME280;65939;50.060;14.288;2023-02-23T09:06:36;96996.69;;;10.13;75.46
77003;BME280;65939;50.060;14.288;2023-02-23T09:08:37;96999.00;;;10.24;74.88
77003;BME280;65939;50.060;14.288;2023-02-23T09:10:39;96988.28;;;10.35;74.36
77003;BME280;65939;50.060;14.288;2023-02-23T09:12:43;96991.72;;;10.44;74.11
77003;BME280;65939;50.060;14.288;2023-02-23T09:14:43;96990.09;;;10.43;73.44
77003;BME280;65939;50.060;14.288;2023-02-23T09:16:44;96985.19;;;10.40;72.46
77003;BME280;65939;50.060;14.288;2023-02-23T09:18:46;96992.84;;;10.41;73.28
77003;BME280;65939;50.060;14.288;2023-02-23T09:20:47;96985.19;;;10.48;73.21
77003;BME280;65939;50.060;14.288;2023-02-23T09:22:48;96988.97;;;10.53;73.23
77003;BME280;65939;50.060;14.288;2023-02-23T09:24:49;96983.25;;;10.58;72.49
77003;BME280;65939;50.060;14.288;2023-02-23T09:26:49;96976.41;;;10.65;72.71
77003;BME280;65939;50.060;14.288;2023-02-23T09:28:52;96981.13;;;10.70;72.30
77003;BME280;65939;50.060;14.288;2023-02-23T09:30:53;96982.91;;;10.77;71.80
77003;BME280;65939;50.060;14.288;2023-02-23T09:32:54;96980.78;;;10.81;71.35
77003;BME280;65939;50.060;14.288;2023-02-23T09:34:55;96973.91;;;10.88;71.41
77003;BME280;65939;50.060;14.288;2023-02-23T09:36:56;96980.47;;;10.92;72.07
77003;BME280;65939;50.060;14.288;2023-02-23T09:38:57;96980.94;;;10.96;72.38
77003;BME280;65939;50.060;14.288;2023-02-23T09:40:58;96980.13;;;11.03;72.00
77003;BME280;65939;50.060;14.288;2023-02-23T09:43:11;96981.56;;;11.14;70.96
77003;BME280;65939;50.060;14.288;2023-02-23T09:45:34;96978.75;;;11.24;71.47
77003;BME280;65939;50.060;14.288;2023-02-23T09:49:44;96977.38;;;11.44;70.29
77003;BME280;65939;50.060;14.288;2023-02-23T09:51:51;96984.22;;;11.54;69.80
77003;BME280;65939;50.060;14.288;2023-02-23T09:53:59;96977.81;;;11.64;70.73
77003;BME280;65939;50.060;14.288;2023-02-23T09:56:42;96980.22;;;11.74;69.48
77003;BME280;65939;50.060;14.288;2023-02-23T09:58:44;96978.06;;;11.86;70.70
77003;BME280;65939;50.060;14.288;2023-02-23T10:00:56;96979.31;;;11.98;69.84
77003;BME280;65939;50.060;14.288;2023-02-23T10:03:26;96970.91;;;12.11;69.74
77003;BME280;65939;50.060;14.288;2023-02-23T10:05:36;96974.63;;;12.16;69.90
77003;BME280;65939;50.060;14.288;2023-02-23T10:17:34;96967.59;;;12.40;68.72
77003;BME280;65939;50.060;14.288;2023-02-23T10:22:07;96976.84;;;12.51;67.88
77003;BME280;65939;50.060;14.288;2023-02-23T10:26:30;96973.00;;;12.61;67.65
77003;BME280;65939;50.060;14.288;2023-02-23T10:28:35;96983.13;;;12.64;67.31
77003;BME280;65939;50.060;14.288;2023-02-23T10:30:39;96980.50;;;12.64;68.07
77003;BME280;65939;50.060;14.288;2023-02-23T10:35:10;96979.97;;;12.69;67.78
77003;BME280;65939;50.060;14.288;2023-02-23T10:37:15;96969.50;;;12.69;67.78
77003;BME280;65939;50.060;14.288;2023-02-23T10:39:17;96973.56;;;12.72;67.31
77003;BME280;65939;50.060;14.288;2023-02-23T10:41:18;96966.53;;;12.72;66.84
77003;BME280;65939;50.060;14.288;2023-02-23T10:43:19;96970.13;;;12.71;67.45
77003;BME280;65939;50.060;14.288;2023-02-23T10:45:25;96967.06;;;12.67;67.25
77003;BME280;65939;50.060;14.288;2023-02-23T10:47:30;96974.25;;;12.65;67.66
77003;BME280;65939;50.060;14.288;2023-02-23T10:49:43;96960.66;;;12.70;67.51
77003;BME280;65939;50.060;14.288;2023-02-23T10:51:44;96962.56;;;12.76;66.95
77003;BME280;65939;50.060;14.288;2023-02-23T10:53:45;96962.03;;;12.81;67.72
77003;BME280;65939;50.060;14.288;2023-02-23T10:55:46;96963.94;;;12.87;67.40
77003;BME280;65939;50.060;14.288;2023-02-23T10:58:10;96956.19;;;12.93;68.02
77003;BME280;65939;50.060;14.288;2023-02-23T11:02:24;96956.03;;;13.10;67.52
77003;BME280;65939;50.060;14.288;2023-02-23T11:04:29;96955.47;;;13.14;67.25
77003;BME280;65939;50.060;14.288;2023-02-23T11:06:36;96950.88;;;13.16;66.63
77003;BME280;65939;50.060;14.288;2023-02-23T11:08:41;96952.22;;;13.12;66.43
77003;BME280;65939;50.060;14.288;2023-02-23T11:10:42;96950.78;;;13.10;66.14
77003;BME280;65939;50.060;14.288;2023-02-23T11:12:42;96951.13;;;13.07;65.96
77003;BME280;65939;50.060;14.288;2023-02-23T11:14:43;96947.16;;;13.11;67.25
77003;BME280;65939;50.060;14.288;2023-02-23T11:16:44;96946.44;;;13.17;67.25
77003;BME280;65939;50.060;14.288;2023-02-23T11:18:57;96941.13;;;13.25;67.31
77003;BME280;65939;50.060;14.288;2023-02-23T11:20:59;96934.19;;;13.32;66.50
77003;BME280;65939;50.060;14.288;2023-02-23T11:23:07;96936.09;;;13.38;65.93
77003;BME280;65939;50.060;14.288;2023-02-23T11:25:20;96929.63;;;13.41;66.10
77003;BME280;65939;50.060;14.288;2023-02-23T11:27:26;96928.31;;;13.45;65.52
77003;BME280;65939;50.060;14.288;2023-02-23T11:29:31;96925.13;;;13.50;66.67
77003;BME280;65939;50.060;14.288;2023-02-23T11:31:34;96924.75;;;13.53;65.76
77003;BME280;65939;50.060;14.288;2023-02-23T11:33:38;96922.75;;;13.55;65.51
77003;BME280;65939;50.060;14.288;2023-02-23T11:35:39;96925.47;;;13.61;66.45
77003;BME280;65939;50.060;14.288;2023-02-23T11:37:40;96918.69;;;13.67;66.56
77003;BME280;65939;50.060;14.288;2023-02-23T11:39:58;96922.34;;;13.73;65.64
77003;BME280;65939;50.060;14.288;2023-02-23T11:42:19;96912.94;;;13.78;65.22
77003;BME280;65939;50.060;14.288;2023-02-23T11:44:21;96923.25;;;13.80;65.61
77003;BME280;65939;50.060;14.288;2023-02-23T11:46:24;96912.13;;;13.78;65.08
77003;BME280;65939;50.060;14.288;2023-02-23T11:48:31;96914.94;;;13.76;64.57
77003;BME280;65939;50.060;14.288;2023-02-23T11:50:34;96914.75;;;13.78;64.90
77003;BME280;65939;50.060;14.288;2023-02-23T11:52:35;96909.97;;;13.81;65.69
77003;BME280;65939;50.060;14.288;2023-02-23T11:54:36;96912.22;;;13.84;64.68
77003;BME280;65939;50.060;14.288;2023-02-23T11:56:38;96910.03;;;13.88;65.50
77003;BME280;65939;50.060;14.288;2023-02-23T11:58:48;96915.53;;;13.93;65.06